AirNav   Everest Fuels
 
 1381 users online  

TN61 Ranger Heliport
Bartlett, Tennessee, USA

GOING TO BARTLETT?


FAA INFORMATION EFFECTIVE 31 DECEMBER 2020

Location

FAA Identifier: TN61
Lat/Long: 35-12-06.3180N 089-52-06.3100W
35-12.105300N 089-52.105167W
35.2017550,-89.8684194
(estimated)
Elevation: 300 ft. / 91 m (estimated)
Variation: 02E (1985)
From city: 3 miles NE of BARTLETT, TN
Time zone: UTC -6 (UTC -5 during Daylight Saving Time)
Zip code: 38134

Heliport Operations

Heliport use: Private use. Permission required prior to landing
Activation date: 09/1979
Control tower: no
ARTCC: MEMPHIS CENTER
FSS: JACKSON FLIGHT SERVICE STATION
Attendance: MON-FRI 0800-1600
Wind indicator: no
Segmented circle: no

Heliport Communications

WX AWOS-A at 2M8 (6 nm NW): 122.8 ((901) 873-0903)
WX AWOS-AV at M01 (9 nm W): 122.7 ((901) 354-9296)
WX AWOS-3 at NQA (9 nm N): 118.925 (901-873-3630)
WX ASOS at MEM (11 nm SW): 127.75 (901-842-8483)
WX AWOS-3 at OLV (14 nm S): 119.925 (662-893-5906)
WX ASOS at AWM (18 nm W): 118.175 (870-733-9987)

Nearby radio navigation aids

VOR radial/distance  VOR name  Freq  Var
MEMr026/12.5MEMPHIS VORTAC117.5001E
GQEr102/31.1GILMORE VOR/DME113.0004E
HLIr322/31.7HOLLY SPRINGS VORTAC112.4003E

Heliport Services

Fuel available: A

Runway Information

Helipad H1

Dimensions: 603 x 452 ft. / 184 x 138 m
Surface: turf
Latitude: 35-12.105300N
Longitude: 089-52.105167W
Elevation: 300.0 ft.
Traffic pattern: leftleft

Heliport Ownership and Management from official FAA records

Ownership: Privately-owned
Owner: RANGER TOOL CO
5786 FERGUSON
BARTLETT, TN 38134
Phone 901-386-4514
Manager: JERRY W. DAVIS
5786 FERGUSON
BARTLETT, TN 38134
Phone 901-386-4514

Heliport Operational Statistics

Aircraft based on the field: 1
Helicopters: 1
    

Additional Remarks

A52-H1 PLINE SOUTH OF HELIPORT; BLDG NORTH OF HELIPORT.
FOR CD CTC MEMPHIS APCH AT 901-842-8457.

Instrument Procedures

There are no published instrument procedures at TN61.

Some nearby airports with instrument procedures:

2M8 - Charles W Baker Airport (6 nm NW)
M01 - General Dewitt Spain Airport (9 nm W)
KNQA - Millington-Memphis Airport (9 nm N)
KMEM - Memphis International Airport (11 nm SW)
KOLV - Olive Branch Airport (14 nm S)
KAWM - West Memphis Municipal Airport (18 nm W)
 
Loc | Ops | Rwys | IFR | FBO | Links
Com | Nav | Svcs | Stats | Notes
Area around TN61 (Ranger Heliport)
 
Road maps at: MapQuest Bing Google
 
Aerial photo
No photo
 
Sectional chart

 
Airport distance calculator
Flying to Ranger Heliport? Find the distance to fly.

From to TN61

Sunrise and sunset
Times for 18-Jan-2021
 Local
(UTC-6)
 Zulu
(UTC)
Morning civil twilight06:4012:40
Sunrise07:0813:08
Sunset17:1223:12
Evening civil twilight17:4023:40

Current date and time
Zulu (UTC)  18-Jan-2021 16:29:03
Local (UTC-6)  18-Jan-2021 10:29:03
 
METAR
KNQA 
9nm N 
181550Z 23006KT 10SM CLR 06/M01 A3010
KMEM 
10nm SW 
181554Z 22005KT 10SM SCT180 SCT250 08/M02 A3011 RMK AO2 SLP198 T00831022 $
KMEG 
11nm SW 
181550Z RMK AWOS T00710999
KOLV 
14nm S 
181550Z 18005KT 10SM SCT180 08/M03 A3012
KAWM 
18nm W 
181553Z AUTO VRB06KT 10SM CLR 08/M02 A3010 RMK AO2 SLP195 T00781022
TAF
KMEM 
10nm SW 
181136Z 1812/1918 25005KT P6SM SKC FM181500 22010G15KT P6SM BKN150 FM190100 19007KT P6SM FEW060 BKN120 FM191100 23007KT P6SM VCSH BKN040
NOTAMs
Click for the latest NOTAMs
NOTAMs are issued by the DoD/FAA and will open in a separate window not controlled by AirNav.

 

 
 

Would you like to see your business listed on this page?

 If your business provides an interesting product or service to pilots, flight crews, aircraft, or users of the Ranger Heliport, you should consider listing it here.  To start the listing process, click on the button below
 
Add a business
 

Other Pages about Ranger Heliport

Update a link
 
Copyright © AirNav, LLC. All rights reserved. Privacy Policy  Contact